Time,TemperatureF,DewpointF,PressureIn,WindDirection,WindDirectionDegrees,WindSpeedMPH,WindSpeedGustMPH,Humidity,HourlyPrecipIn,Conditions,Clouds,dailyrainin,SoftwareType,DateUTC
2017-09-24 06:53:00,60.7,57.0,30.38,SSW,203,0.0,-999.0,90,0.00,,,0.00,,2017-09-24 10:53:00,
2017-09-24 08:09:00,60.7,57.0,30.38,South,180,0.0,-999.0,90,0.00,,,0.00,,2017-09-24 12:09:00,
2017-09-24 08:15:00,61.1,59.0,30.38,SSW,203,0.0,-999.0,93,0.00,,,0.00,,2017-09-24 12:15:00,
2017-09-24 08:21:00,61.3,59.0,30.38,WNW,293,0.0,-999.0,93,0.00,,,0.00,,2017-09-24 12:21:00,
2017-09-24 08:26:00,61.7,59.0,30.38,South,180,0.0,-999.0,93,0.00,,,0.00,,2017-09-24 12:26:00,
2017-09-24 08:43:00,61.9,60.0,30.39,SSW,203,0.0,-999.0,93,0.00,,,0.00,,2017-09-24 12:43:00,
2017-09-24 08:52:00,63.0,61.0,30.39,NE,45,0.0,-999.0,93,0.00,,,0.00,,2017-09-24 12:52:00,
2017-09-24 09:00:00,63.9,62.0,30.39,South,180,0.0,-999.0,95,0.00,,,0.00,,2017-09-24 13:00:00,
2017-09-24 09:06:00,64.1,62.0,30.38,South,180,0.0,-999.0,95,0.00,,,0.00,,2017-09-24 13:06:00,
2017-09-24 09:11:00,64.6,63.0,30.38,SSE,158,0.0,-999.0,95,0.00,,,0.00,,2017-09-24 13:11:00,
2017-09-24 09:17:00,65.0,63.0,30.38,South,180,0.0,-999.0,95,0.00,,,0.00,,2017-09-24 13:17:00,
2017-09-24 09:22:00,65.5,64.0,30.38,ESE,113,0.0,-999.0,95,0.00,,,0.00,,2017-09-24 13:22:00,
2017-09-24 09:30:00,65.9,64.0,30.38,SSE,158,0.0,-999.0,95,0.00,,,0.00,,2017-09-24 13:30:00,
2017-09-24 09:59:00,65.9,64.0,30.38,South,180,0.0,-999.0,95,0.00,,,0.00,,2017-09-24 13:59:00,
2017-09-24 10:10:00,70.5,65.0,30.38,South,180,1.0,-999.0,85,0.00,,,0.00,,2017-09-24 14:10:00,
2017-09-24 10:22:00,70.5,65.0,30.37,West,270,2.0,-999.0,85,0.00,,,0.00,,2017-09-24 14:22:00,
2017-09-24 11:36:00,78.3,68.0,30.36,ENE,68,2.0,-999.0,70,0.00,,,0.00,,2017-09-24 15:36:00,
2017-09-24 12:41:00,81.9,67.0,30.35,ENE,68,2.0,-999.0,61,0.00,,,0.00,,2017-09-24 16:41:00,
2017-09-24 12:54:00,83.8,67.0,30.35,SSE,158,1.0,-999.0,59,0.00,,,0.00,,2017-09-24 16:54:00,
2017-09-24 14:41:00,87.1,66.0,30.33,NNE,23,3.0,-999.0,50,0.00,,,0.00,,2017-09-24 18:41:00,
2017-09-24 15:20:00,87.3,68.0,30.32,NW,315,2.0,-999.0,54,0.00,,,0.00,,2017-09-24 19:20:00,
2017-09-24 15:25:00,87.3,68.0,30.31,West,270,0.0,-999.0,53,0.00,,,0.00,,2017-09-24 19:25:00,
2017-09-24 15:32:00,87.3,68.0,30.31,NW,315,1.0,-999.0,54,0.00,,,0.00,,2017-09-24 19:32:00,
2017-09-24 15:54:00,87.3,67.0,30.30,WSW,248,0.0,-999.0,50,0.00,,,0.00,,2017-09-24 19:54:00,
2017-09-24 16:01:00,88.9,71.0,30.30,South,180,0.0,-999.0,56,0.00,,,0.00,,2017-09-24 20:01:00,
2017-09-24 16:07:00,86.7,71.0,30.31,NE,45,0.0,-999.0,61,0.00,,,0.00,,2017-09-24 20:07:00,
2017-09-24 16:23:00,88.6,71.0,30.31,SSW,203,0.0,-999.0,56,0.00,,,0.00,,2017-09-24 20:23:00,
2017-09-24 16:29:00,88.2,71.0,30.30,SE,135,0.0,-999.0,56,0.00,,,0.00,,2017-09-24 20:29:00,
2017-09-24 16:35:00,88.0,70.0,30.30,SSW,203,0.0,-999.0,55,0.00,,,0.00,,2017-09-24 20:35:00,
2017-09-24 16:51:00,88.6,69.0,30.29,WNW,293,0.0,-999.0,53,0.00,,,0.00,,2017-09-24 20:51:00,
2017-09-24 16:57:00,86.9,70.0,30.28,South,180,0.0,-999.0,58,0.00,,,0.00,,2017-09-24 20:57:00,
2017-09-24 17:02:00,86.4,70.0,30.29,SSW,203,0.0,-999.0,60,0.00,,,0.00,,2017-09-24 21:02:00,
2017-09-24 17:08:00,87.3,70.0,30.29,West,270,0.0,-999.0,58,0.00,,,0.00,,2017-09-24 21:08:00,
2017-09-24 17:16:00,86.4,71.0,30.29,West,270,0.0,-999.0,61,0.00,,,0.00,,2017-09-24 21:16:00,
2017-09-24 17:24:00,86.4,71.0,30.30,SSW,203,0.0,-999.0,61,0.00,,,0.00,,2017-09-24 21:24:00,
2017-09-24 17:49:00,83.5,71.0,30.29,SW,225,0.0,-999.0,66,0.00,,,0.00,,2017-09-24 21:49:00,
2017-09-24 17:57:00,83.5,71.0,30.29,South,180,0.0,-999.0,66,0.00,,,0.00,,2017-09-24 21:57:00,
2017-09-24 18:05:00,83.5,71.0,30.28,WSW,248,0.0,-999.0,66,0.00,,,0.00,,2017-09-24 22:05:00,
2017-09-24 18:26:00,83.5,71.0,30.29,SSW,203,0.0,-999.0,66,0.00,,,0.00,,2017-09-24 22:26:00,
2017-09-24 18:55:00,80.1,70.0,30.30,SSW,203,0.0,-999.0,73,0.00,,,0.00,,2017-09-24 22:55:00,
2017-09-24 19:00:00,79.4,70.0,30.30,SSW,203,0.0,-999.0,74,0.00,,,0.00,,2017-09-24 23:00:00,
2017-09-24 19:07:00,79.3,70.0,30.30,SSW,203,0.0,-999.0,74,0.00,,,0.00,,2017-09-24 23:07:00,
2017-09-24 19:13:00,78.4,69.0,30.29,SSW,203,0.0,-999.0,75,0.00,,,0.00,,2017-09-24 23:13:00,
2017-09-24 19:19:00,78.1,69.0,30.30,SW,225,0.0,-999.0,75,0.00,,,0.00,,2017-09-24 23:19:00,
2017-09-24 19:25:00,76.9,69.0,30.30,SW,225,0.0,-999.0,78,0.00,,,0.00,,2017-09-24 23:25:00,
2017-09-24 19:30:00,76.3,69.0,30.31,ENE,68,0.0,-999.0,79,0.00,,,0.00,,2017-09-24 23:30:00,
2017-09-24 19:36:00,75.6,69.0,30.31,SSW,203,0.0,-999.0,80,0.00,,,0.00,,2017-09-24 23:36:00,
2017-09-24 19:50:00,75.6,69.0,30.31,South,180,0.0,-999.0,80,0.00,,,0.00,,2017-09-24 23:50:00,
2017-09-24 20:01:00,74.0,68.0,30.32,SSW,203,0.0,-999.0,81,0.00,,,0.00,,2017-09-25 00:01:00,
2017-09-24 20:07:00,73.8,68.0,30.31,SSW,203,0.0,-999.0,83,0.00,,,0.00,,2017-09-25 00:07:00,
2017-09-24 20:12:00,73.5,68.0,30.31,SSW,203,0.0,-999.0,83,0.00,,,0.00,,2017-09-25 00:12:00,
2017-09-24 20:18:00,73.1,67.0,30.32,South,180,0.0,-999.0,83,0.00,,,0.00,,2017-09-25 00:18:00,
2017-09-24 20:23:00,72.8,67.0,30.32,South,180,0.0,-999.0,83,0.00,,,0.00,,2017-09-25 00:23:00,
2017-09-24 20:29:00,72.8,67.0,30.32,West,270,0.0,-999.0,83,0.00,,,0.00,,2017-09-25 00:29:00,
2017-09-24 20:34:00,72.6,67.0,30.32,SSW,203,0.0,-999.0,85,0.00,,,0.00,,2017-09-25 00:34:00,
2017-09-24 20:40:00,72.5,67.0,30.31,SSW,203,0.0,-999.0,85,0.00,,,0.00,,2017-09-25 00:40:00,
2017-09-24 20:46:00,72.1,67.0,30.32,South,180,0.0,-999.0,85,0.00,,,0.00,,2017-09-25 00:46:00,
2017-09-24 20:52:00,72.1,67.0,30.32,SSW,203,0.0,-999.0,85,0.00,,,0.00,,2017-09-25 00:52:00,
2017-09-24 20:59:00,71.9,67.0,30.33,SSE,158,0.0,-999.0,85,0.00,,,0.00,,2017-09-25 00:59:00,
2017-09-24 21:05:00,71.8,67.0,30.32,SSW,203,0.0,-999.0,85,0.00,,,0.00,,2017-09-25 01:05:00,
2017-09-24 21:14:00,71.5,66.0,30.32,SSW,203,0.0,-999.0,85,0.00,,,0.00,,2017-09-25 01:14:00,
2017-09-24 21:50:00,71.1,66.0,30.33,South,180,0.0,-999.0,85,0.00,,,0.00,,2017-09-25 01:50:00,
2017-09-24 21:56:00,70.1,65.0,30.34,South,180,0.0,-999.0,83,0.00,,,0.00,,2017-09-25 01:56:00,
2017-09-24 22:04:00,69.8,64.0,30.34,ESE,113,0.0,-999.0,83,0.00,,,0.00,,2017-09-25 02:04:00,
2017-09-24 22:15:00,69.6,64.0,30.34,South,180,0.0,-999.0,83,0.00,,,0.00,,2017-09-25 02:15:00,
2017-09-24 22:22:00,69.4,64.0,30.35,SE,135,0.0,-999.0,83,0.00,,,0.00,,2017-09-25 02:22:00,
2017-09-24 22:30:00,69.0,63.0,30.36,SSE,158,0.0,-999.0,83,0.00,,,0.00,,2017-09-25 02:30:00,
2017-09-24 22:36:00,68.9,63.0,30.35,South,180,0.0,-999.0,83,0.00,,,0.00,,2017-09-25 02:36:00,
2017-09-24 22:41:00,68.9,63.0,30.35,ENE,68,0.0,-999.0,83,0.00,,,0.00,,2017-09-25 02:41:00,
2017-09-24 22:47:00,68.6,63.0,30.35,ESE,113,0.0,-999.0,83,0.00,,,0.00,,2017-09-25 02:47:00,
2017-09-24 22:53:00,68.6,63.0,30.35,SSE,158,0.0,-999.0,83,0.00,,,0.00,,2017-09-25 02:53:00,
2017-09-24 22:59:00,68.4,62.0,30.35,SSW,203,0.0,-999.0,81,0.00,,,0.00,,2017-09-25 02:59:00,